createdAt,value
2023-05-09T00:01:48.202Z,16.60
2023-05-09T00:05:52.084Z,19.60
2023-05-09T00:09:56.671Z,17.50
2023-05-09T00:14:00.480Z,18.30
2023-05-09T00:18:04.307Z,18.40
2023-05-09T00:22:08.189Z,19.50
2023-05-09T00:26:10.966Z,18.10
2023-05-09T00:30:15.551Z,17.00
2023-05-09T00:34:19.390Z,18.50
2023-05-09T00:38:16.498Z,18.60
2023-05-09T00:42:20.272Z,17.50
2023-05-09T00:46:24.867Z,16.80
2023-05-09T00:50:28.713Z,17.60
2023-05-09T00:54:33.695Z,18.20
2023-05-09T00:58:37.498Z,17.20
2023-05-09T01:02:41.529Z,16.70
2023-05-09T01:06:26.918Z,16.30
2023-05-09T01:10:07.980Z,16.30
2023-05-09T01:13:56.279Z,16.70
2023-05-09T01:17:59.335Z,15.60
2023-05-09T01:21:44.804Z,16.00
2023-05-09T01:25:47.384Z,15.70
2023-05-09T01:29:39.767Z,15.80
2023-05-09T01:33:30.176Z,14.50
2023-05-09T01:37:19.571Z,15.40
2023-05-09T01:41:13.467Z,15.30
2023-05-09T01:45:15.706Z,15.40
2023-05-09T01:48:47.784Z,14.90
2023-05-09T01:52:43.344Z,15.60
2023-05-09T01:56:47.500Z,15.80
2023-05-09T02:00:34.314Z,16.00
2023-05-09T02:03:54.640Z,16.10
2023-05-09T02:07:41.495Z,15.90
2023-05-09T02:11:23.879Z,16.50
2023-05-09T02:15:00.950Z,16.70
2023-05-09T02:18:19.259Z,15.70
2023-05-09T02:22:12.886Z,14.90
2023-05-09T02:26:05.500Z,16.00
2023-05-09T02:29:57.562Z,15.40
2023-05-09T02:33:42.713Z,16.10
2023-05-09T02:37:26.072Z,16.10
2023-05-09T02:41:18.406Z,15.20
2023-05-09T02:45:01.461Z,15.20
2023-05-09T02:48:36.025Z,16.50
2023-05-09T02:52:19.738Z,16.10
2023-05-09T02:56:04.460Z,16.10
2023-05-09T02:59:41.488Z,18.30
2023-05-09T03:03:38.211Z,16.10
2023-05-09T03:07:30.387Z,15.90
2023-05-09T03:11:10.902Z,16.30
2023-05-09T03:15:08.294Z,15.90
2023-05-09T03:18:44.054Z,15.90
2023-05-09T03:22:27.552Z,16.50
2023-05-09T03:26:31.638Z,16.60
2023-05-09T03:30:08.458Z,17.60
2023-05-09T03:33:52.370Z,16.70
2023-05-09T03:37:42.750Z,17.90
2023-05-09T03:41:36.864Z,17.40
2023-05-09T03:45:33.702Z,18.90
2023-05-09T03:49:15.923Z,20.40
2023-05-09T03:52:37.621Z,20.30
2023-05-09T03:56:41.707Z,21.10
2023-05-09T04:00:26.010Z,21.50
2023-05-09T04:03:43.286Z,21.30
2023-05-09T04:07:47.266Z,20.50
2023-05-09T04:11:09.779Z,20.70
2023-05-09T04:14:52.106Z,20.10
2023-05-09T04:18:46.103Z,20.60
2023-05-09T04:22:23.175Z,20.80
2023-05-09T04:25:49.152Z,20.20
2023-05-09T04:29:31.804Z,21.10
2023-05-09T04:32:50.880Z,23.00
2023-05-09T04:36:34.863Z,21.60
2023-05-09T04:40:09.338Z,23.60
2023-05-09T04:43:36.169Z,23.00
2023-05-09T04:47:22.781Z,22.70
2023-05-09T04:51:08.191Z,21.80
2023-05-09T04:54:44.316Z,22.40
2023-05-09T04:58:10.198Z,22.80
2023-05-09T05:02:06.683Z,21.40
2023-05-09T05:05:35.993Z,21.30
2023-05-09T05:09:03.703Z,18.90
2023-05-09T05:12:22.479Z,18.00
2023-05-09T05:16:04.215Z,16.20
2023-05-09T05:19:31.047Z,16.30
2023-05-09T05:22:57.226Z,13.60
2023-05-09T05:26:31.932Z,11.90
2023-05-09T05:29:21.862Z,8.40
2023-05-09T05:32:52.155Z,8.90
2023-05-09T05:36:08.433Z,8.40
2023-05-09T05:39:29.565Z,7.50
2023-05-09T05:42:35.463Z,8.70
2023-05-09T05:45:46.050Z,8.30
2023-05-09T05:48:52.884Z,8.20
2023-05-09T05:52:06.488Z,8.00
2023-05-09T05:55:30.526Z,8.40
2023-05-09T05:58:41.904Z,8.30
2023-05-09T06:01:59.268Z,8.20
2023-05-09T06:05:16.119Z,7.70
2023-05-09T06:08:17.055Z,8.40
2023-05-09T06:11:31.549Z,7.50
2023-05-09T06:15:15.817Z,6.40
2023-05-09T06:18:07.174Z,6.70
2023-05-09T06:21:10.846Z,7.30
2023-05-09T06:24:11.899Z,6.40
2023-05-09T06:27:29.381Z,6.90
2023-05-09T06:30:40.552Z,5.50
2023-05-09T06:33:38.281Z,5.70
2023-05-09T06:36:58.969Z,6.00
2023-05-09T06:40:12.727Z,5.70
2023-05-09T06:44:05.188Z,5.30
2023-05-09T06:46:59.483Z,5.40
2023-05-09T06:50:25.737Z,5.00
2023-05-09T06:54:02.235Z,5.20
2023-05-09T06:57:21.040Z,4.60
2023-05-09T07:00:24.554Z,5.20
2023-05-09T07:03:47.031Z,5.50
2023-05-09T07:07:13.556Z,5.70
2023-05-09T07:10:22.097Z,5.60
2023-05-09T07:13:39.550Z,4.90
2023-05-09T07:16:47.091Z,4.70
2023-05-09T07:19:36.314Z,4.80
2023-05-09T07:22:36.414Z,4.90
2023-05-09T07:25:52.383Z,4.90
2023-05-09T07:29:20.210Z,4.50
2023-05-09T07:32:28.104Z,4.20
2023-05-09T07:35:23.899Z,4.60
2023-05-09T07:38:23.496Z,4.20
2023-05-09T07:41:24.471Z,4.20
2023-05-09T07:45:10.361Z,3.70
2023-05-09T07:48:13.686Z,4.50
2023-05-09T07:51:10.376Z,3.70
2023-05-09T07:54:35.264Z,3.60
2023-05-09T07:57:53.110Z,4.10
2023-05-09T08:00:59.063Z,4.00
2023-05-09T08:03:56.778Z,4.10
2023-05-09T08:07:20.499Z,4.30
2023-05-09T08:10:27.972Z,4.50
2023-05-09T08:14:25.399Z,3.50
2023-05-09T08:17:21.120Z,4.30
2023-05-09T08:20:27.077Z,5.40
2023-05-09T08:24:01.858Z,4.00
2023-05-09T08:27:08.084Z,3.30
2023-05-09T08:29:57.446Z,3.10
2023-05-09T08:32:53.412Z,3.20
2023-05-09T08:35:42.518Z,3.20
2023-05-09T08:38:47.702Z,3.60
2023-05-09T08:41:47.449Z,3.50
2023-05-09T08:44:34.275Z,3.30
2023-05-09T08:47:21.757Z,3.10
2023-05-09T08:50:08.658Z,3.00
2023-05-09T08:52:55.275Z,3.40
2023-05-09T08:55:41.778Z,3.10
2023-05-09T08:58:25.314Z,3.90
2023-05-09T09:01:34.550Z,2.50
2023-05-09T09:04:38.324Z,3.20
2023-05-09T09:07:36.668Z,4.20
2023-05-09T09:10:52.822Z,3.00
2023-05-09T09:13:46.598Z,3.00
2023-05-09T09:16:47.217Z,3.10
2023-05-09T09:20:31.698Z,3.20
2023-05-09T09:23:20.060Z,3.30
2023-05-09T09:26:29.841Z,2.90
2023-05-09T09:29:52.928Z,3.00
2023-05-09T09:32:48.480Z,3.00
2023-05-09T09:36:15.762Z,3.30
2023-05-09T09:39:14.128Z,3.60
2023-05-09T09:42:23.862Z,3.30
2023-05-09T09:45:39.654Z,2.50
2023-05-09T09:49:02.219Z,2.90
2023-05-09T09:52:03.940Z,3.40
2023-05-09T09:54:48.030Z,2.50
2023-05-09T09:57:46.568Z,2.80
2023-05-09T10:00:33.057Z,3.20
2023-05-09T10:03:55.453Z,2.70
2023-05-09T10:07:29.286Z,3.10
2023-05-09T10:10:46.336Z,3.10
2023-05-09T10:14:12.274Z,3.00
2023-05-09T10:17:32.697Z,3.20
2023-05-09T10:20:42.217Z,2.90
2023-05-09T10:23:32.918Z,2.90
2023-05-09T10:26:32.860Z,2.90
2023-05-09T10:29:31.862Z,3.40
2023-05-09T10:32:46.496Z,3.40
2023-05-09T10:36:12.526Z,2.80
2023-05-09T10:39:00.189Z,4.50
2023-05-09T10:41:49.974Z,3.30
2023-05-09T10:45:09.293Z,3.50
2023-05-09T10:48:42.516Z,3.50
2023-05-09T10:52:00.847Z,3.80
2023-05-09T10:55:04.414Z,3.60
2023-05-09T10:58:13.807Z,3.50
2023-05-09T11:01:30.348Z,3.60
2023-05-09T11:04:26.962Z,3.90
2023-05-09T11:08:18.286Z,5.60
2023-05-09T11:11:43.982Z,3.30
2023-05-09T11:15:07.217Z,3.60
2023-05-09T11:18:19.085Z,3.60
2023-05-09T11:21:16.863Z,3.10
2023-05-09T11:24:32.607Z,4.30
2023-05-09T11:27:21.001Z,3.40
2023-05-09T11:30:35.583Z,2.90
2023-05-09T11:33:31.514Z,2.60
2023-05-09T11:39:25.395Z,3.10
2023-05-09T11:42:55.371Z,3.10
2023-05-09T11:45:53.504Z,3.20
2023-05-09T11:48:58.257Z,3.50
2023-05-09T11:52:22.406Z,2.90
2023-05-09T11:55:35.662Z,2.80
2023-05-09T11:58:42.614Z,2.40
2023-05-09T12:02:05.928Z,2.90
2023-05-09T12:05:31.222Z,2.80
2023-05-09T12:08:42.645Z,2.80
2023-05-09T12:12:12.546Z,2.90
2023-05-09T12:15:25.046Z,2.30
2023-05-09T12:22:18.329Z,2.70
2023-05-09T12:25:32.573Z,3.10
2023-05-09T12:28:21.871Z,3.30
2023-05-09T12:31:18.915Z,3.40
2023-05-09T12:34:52.030Z,2.60
2023-05-09T12:38:25.661Z,3.00
2023-05-09T12:41:37.086Z,2.60
2023-05-09T12:45:01.632Z,2.60
2023-05-09T12:48:01.575Z,2.30
2023-05-09T12:50:47.826Z,2.70
2023-05-09T12:54:08.110Z,2.50
2023-05-09T12:56:53.282Z,2.60
2023-05-09T12:59:47.196Z,2.90
2023-05-09T13:02:51.020Z,3.60
2023-05-09T13:06:27.865Z,2.80
2023-05-09T13:09:34.116Z,3.30
2023-05-09T13:12:26.652Z,2.50
2023-05-09T13:15:52.253Z,2.20
2023-05-09T13:18:54.938Z,3.30
2023-05-09T13:22:19.445Z,2.50
2023-05-09T13:25:17.082Z,2.80
2023-05-09T13:28:22.783Z,2.40
2023-05-09T13:31:42.095Z,3.10
2023-05-09T13:35:01.755Z,2.60
2023-05-09T13:38:15.199Z,2.30
2023-05-09T13:41:12.845Z,2.30
2023-05-09T13:44:13.015Z,2.00
2023-05-09T13:47:14.773Z,2.40
2023-05-09T13:50:17.094Z,3.00
2023-05-09T13:53:19.592Z,3.60
2023-05-09T13:56:13.176Z,2.30
2023-05-09T14:00:06.097Z,3.40
2023-05-09T14:02:55.789Z,2.90
2023-05-09T14:05:54.294Z,3.20
2023-05-09T14:08:40.167Z,2.60
2023-05-09T14:11:37.518Z,2.60
2023-05-09T14:14:48.781Z,2.70
2023-05-09T14:18:32.571Z,3.10
2023-05-09T14:21:26.170Z,2.40
2023-05-09T14:24:51.204Z,2.80
2023-05-09T14:28:04.059Z,3.10
2023-05-09T14:31:30.062Z,3.50
2023-05-09T14:34:29.917Z,2.40
2023-05-09T14:37:48.751Z,2.60
2023-05-09T14:41:05.319Z,2.70
2023-05-09T14:47:23.247Z,3.70
2023-05-09T14:50:36.732Z,2.80
2023-05-09T14:53:45.510Z,2.50
2023-05-09T14:57:04.276Z,4.00
2023-05-09T15:00:24.361Z,2.30
2023-05-09T15:04:05.505Z,3.70
2023-05-09T15:07:09.045Z,2.80
2023-05-09T15:10:05.970Z,2.50
2023-05-09T15:13:00.640Z,2.10
2023-05-09T15:15:52.636Z,3.10
2023-05-09T15:19:05.862Z,2.10
2023-05-09T15:22:34.785Z,2.30
2023-05-09T15:25:57.410Z,2.30
2023-05-09T15:28:52.531Z,3.20
2023-05-09T15:31:39.593Z,2.30
2023-05-09T15:34:57.464Z,2.40
2023-05-09T15:37:41.333Z,3.20
2023-05-09T15:40:36.431Z,2.40
2023-05-09T15:43:29.871Z,2.90
2023-05-09T15:46:26.513Z,2.30
2023-05-09T15:49:14.669Z,2.50
2023-05-09T15:52:18.232Z,3.10
2023-05-09T15:55:08.753Z,3.80
2023-05-09T15:58:03.120Z,3.10
2023-05-09T16:01:08.098Z,2.50
2023-05-09T16:03:58.736Z,2.60
2023-05-09T16:06:44.721Z,2.60
2023-05-09T16:09:37.245Z,2.30
2023-05-09T16:12:41.190Z,2.50
2023-05-09T16:15:39.511Z,3.10
2023-05-09T16:18:43.200Z,3.30
2023-05-09T16:22:00.631Z,3.30
2023-05-09T16:25:35.308Z,4.20
2023-05-09T16:28:28.134Z,3.00
2023-05-09T16:31:36.776Z,3.20
2023-05-09T16:34:56.214Z,2.80
2023-05-09T16:38:12.766Z,2.50
2023-05-09T16:41:24.340Z,2.70
2023-05-09T16:44:13.491Z,3.00
2023-05-09T16:46:59.987Z,4.30
2023-05-09T16:50:11.176Z,2.70
2023-05-09T16:52:56.750Z,2.80
2023-05-09T16:55:54.522Z,3.50
2023-05-09T16:58:54.448Z,3.00
2023-05-09T17:02:00.013Z,3.10
2023-05-09T17:04:48.966Z,2.60
2023-05-09T17:07:57.187Z,3.30
2023-05-09T17:11:06.690Z,2.80
2023-05-09T17:14:13.056Z,2.90
2023-05-09T17:17:20.534Z,3.70
2023-05-09T17:20:34.866Z,2.70
2023-05-09T17:23:24.456Z,3.30
2023-05-09T17:26:13.157Z,3.00
2023-05-09T17:29:03.669Z,3.00
2023-05-09T17:32:13.056Z,3.00
2023-05-09T17:35:26.064Z,3.20
2023-05-09T17:38:11.909Z,3.90
2023-05-09T17:41:03.768Z,4.20
2023-05-09T17:44:11.591Z,3.30
2023-05-09T17:47:21.048Z,3.60
2023-05-09T17:50:55.982Z,3.00
2023-05-09T17:54:04.279Z,2.90
2023-05-09T17:57:03.734Z,2.90
2023-05-09T18:00:00.035Z,2.80
2023-05-09T18:03:00.954Z,3.10
2023-05-09T18:06:00.452Z,4.10
2023-05-09T18:09:00.152Z,3.40
2023-05-09T18:11:45.967Z,3.70
2023-05-09T18:14:33.393Z,3.70
2023-05-09T18:18:30.083Z,3.90
2023-05-09T18:21:51.039Z,3.80
2023-05-09T18:24:39.467Z,3.70
2023-05-09T18:27:58.206Z,4.00
2023-05-09T18:31:16.690Z,2.90
2023-05-09T18:34:22.420Z,4.10
2023-05-09T18:37:24.865Z,5.10
2023-05-09T18:40:37.238Z,4.10
2023-05-09T18:43:50.757Z,5.00
2023-05-09T18:47:00.578Z,4.00
2023-05-09T18:50:33.256Z,5.00
2023-05-09T18:54:03.858Z,5.10
2023-05-09T18:57:06.180Z,5.10
2023-05-09T19:00:23.144Z,5.30
2023-05-09T19:03:12.665Z,5.40
2023-05-09T19:06:38.969Z,6.20
2023-05-09T19:10:13.348Z,5.60
2023-05-09T19:13:38.714Z,5.00
2023-05-09T19:16:50.022Z,4.60
2023-05-09T19:20:06.162Z,6.10
2023-05-09T19:23:18.355Z,5.70
2023-05-09T19:26:07.223Z,5.40
2023-05-09T19:29:08.284Z,5.70
2023-05-09T19:32:13.926Z,5.40
2023-05-09T19:35:14.804Z,7.20
2023-05-09T19:38:17.802Z,5.80
2023-05-09T19:41:36.467Z,6.10
2023-05-09T19:44:59.993Z,5.90
2023-05-09T19:47:54.904Z,6.80
2023-05-09T19:51:07.756Z,7.50
2023-05-09T19:54:16.169Z,6.90
2023-05-09T19:58:17.656Z,8.30
2023-05-09T20:01:34.912Z,7.40
2023-05-09T20:04:31.827Z,7.60
2023-05-09T20:07:38.276Z,7.20
2023-05-09T20:10:40.256Z,7.20
2023-05-09T20:13:54.681Z,7.70
2023-05-09T20:17:10.152Z,7.00
2023-05-09T20:20:20.445Z,7.60
2023-05-09T20:23:55.340Z,6.10
2023-05-09T20:26:41.787Z,6.60
2023-05-09T20:29:27.975Z,6.30
2023-05-09T20:32:20.108Z,5.00
2023-05-09T20:35:10.569Z,5.80
2023-05-09T20:38:04.951Z,6.60
2023-05-09T20:41:57.206Z,6.70
2023-05-09T20:45:43.910Z,7.40
2023-05-09T20:49:09.071Z,7.00
2023-05-09T20:53:02.759Z,6.20
2023-05-09T20:56:23.639Z,6.90
2023-05-09T21:00:07.703Z,9.40
2023-05-09T21:03:34.155Z,6.50
2023-05-09T21:07:18.173Z,6.00
2023-05-09T21:11:04.449Z,5.70
2023-05-09T21:15:08.339Z,6.10
2023-05-09T21:18:52.114Z,5.30
2023-05-09T21:22:20.145Z,6.10
2023-05-09T21:26:08.995Z,5.50
2023-05-09T21:29:51.411Z,6.10
2023-05-09T21:33:27.210Z,5.60
2023-05-09T21:37:10.765Z,5.60
2023-05-09T21:40:41.922Z,5.70
2023-05-09T21:47:20.182Z,7.20
2023-05-09T21:50:26.406Z,6.40
2023-05-09T21:53:42.663Z,5.80
2023-05-09T21:57:29.421Z,5.20
2023-05-09T22:00:46.082Z,5.80
2023-05-09T22:04:05.025Z,5.40
2023-05-09T22:07:25.987Z,6.80
2023-05-09T22:10:52.681Z,4.90
2023-05-09T22:14:03.641Z,5.50
2023-05-09T22:20:42.996Z,5.80
2023-05-09T22:24:43.804Z,5.30
2023-05-09T22:28:31.502Z,4.90
2023-05-09T22:32:08.446Z,5.10
2023-05-09T22:35:38.910Z,5.20
2023-05-09T22:38:58.205Z,7.50
2023-05-09T22:42:40.928Z,7.40
2023-05-09T22:46:44.808Z,7.10
2023-05-09T22:50:10.439Z,7.60
2023-05-09T22:53:24.994Z,8.60
2023-05-09T22:57:02.033Z,8.30
2023-05-09T23:00:55.654Z,8.90
2023-05-09T23:04:46.763Z,8.20
2023-05-09T23:08:37.935Z,8.60
2023-05-09T23:12:10.772Z,9.40
2023-05-09T23:15:49.676Z,7.90
2023-05-09T23:19:53.518Z,8.30
2023-05-09T23:23:24.965Z,7.00
2023-05-09T23:26:53.008Z,7.40
2023-05-09T23:30:54.019Z,7.70
2023-05-09T23:34:39.598Z,7.10
2023-05-09T23:37:39.019Z,7.00
2023-05-09T23:41:26.110Z,6.60
2023-05-09T23:45:12.702Z,6.40
2023-05-09T23:48:31.405Z,6.30
